createdAt,value
2019-01-16T00:00:42.254Z,7.63
2019-01-16T00:01:42.271Z,7.75
2019-01-16T00:02:42.288Z,7.58
2019-01-16T00:03:42.302Z,7.61
2019-01-16T00:04:56.988Z,7.61
2019-01-16T00:05:42.335Z,7.67
2019-01-16T00:06:42.354Z,7.68
2019-01-16T00:07:42.374Z,7.68
2019-01-16T00:08:57.047Z,7.6
2019-01-16T00:09:42.399Z,7.71
2019-01-16T00:10:42.472Z,7.63
2019-01-16T00:11:57.092Z,7.68
2019-01-16T00:12:42.456Z,7.63
2019-01-16T00:13:57.125Z,7.64
2019-01-16T00:14:42.476Z,7.72
2019-01-16T00:15:42.492Z,7.71
2019-01-16T00:16:42.512Z,7.69
2019-01-16T00:17:42.524Z,7.67
2019-01-16T00:18:42.640Z,7.69
2019-01-16T00:19:42.554Z,7.64
2019-01-16T00:20:42.580Z,7.72
2019-01-16T00:21:57.256Z,7.71
2019-01-16T00:22:42.603Z,7.67
2019-01-16T00:23:42.620Z,7.69
2019-01-16T00:24:57.300Z,7.77
2019-01-16T00:25:42.653Z,7.77
2019-01-16T00:26:42.669Z,7.77
2019-01-16T00:27:42.689Z,7.68
2019-01-16T00:28:42.703Z,7.8
2019-01-16T00:29:57.377Z,7.77
2019-01-16T00:30:42.730Z,7.79
2019-01-16T00:31:42.859Z,7.74
2019-01-16T00:32:42.763Z,7.82
2019-01-16T00:33:42.786Z,7.8
2019-01-16T00:34:42.794Z,7.72
2019-01-16T00:35:42.811Z,7.86
2019-01-16T00:36:42.825Z,7.72
2019-01-16T00:37:42.841Z,7.72
2019-01-16T00:38:42.856Z,7.8
2019-01-16T00:39:42.876Z,7.82
2019-01-16T00:40:42.892Z,7.8
2019-01-16T00:41:42.955Z,7.8
2019-01-16T00:42:42.918Z,7.89
2019-01-16T00:43:42.938Z,7.82
2019-01-16T00:44:42.952Z,7.83
2019-01-16T00:45:57.637Z,7.87
2019-01-16T00:46:43.083Z,7.85
2019-01-16T00:47:43.000Z,7.83
2019-01-16T00:48:43.015Z,7.86
2019-01-16T00:49:43.031Z,7.9
2019-01-16T00:50:43.047Z,7.83
2019-01-16T00:51:43.064Z,7.82
2019-01-16T00:52:43.080Z,7.89
2019-01-16T00:53:43.094Z,7.87
2019-01-16T00:54:43.160Z,7.9
2019-01-16T00:55:43.127Z,7.86
2019-01-16T00:57:57.823Z,7.9
2019-01-16T00:58:43.180Z,7.86
2019-01-16T00:59:43.227Z,7.87
2019-01-16T01:00:57.873Z,8.04
2019-01-16T01:01:43.224Z,7.98
2019-01-16T01:02:43.339Z,7.97
2019-01-16T01:03:43.255Z,7.95
2019-01-16T01:04:43.272Z,7.95
2019-01-16T01:05:43.288Z,7.97
2019-01-16T01:06:43.302Z,7.93
2019-01-16T01:07:43.336Z,7.97
2019-01-16T01:08:43.338Z,8.02
2019-01-16T01:12:43.405Z,8.02
2019-01-16T01:13:43.414Z,8.08
2019-01-16T01:14:43.433Z,8.11
2019-01-16T01:15:43.445Z,8.11
2019-01-16T01:16:43.462Z,8.05
2019-01-16T01:17:43.477Z,8.01
2019-01-16T01:18:45.850Z,8.15
2019-01-16T01:19:43.512Z,8
2019-01-16T01:20:43.526Z,8.02
2019-01-16T01:21:43.541Z,8.07
2019-01-16T01:22:43.557Z,8.05
2019-01-16T01:23:43.583Z,8.04
2019-01-16T01:24:43.598Z,8.07
2019-01-16T01:25:43.606Z,8.05
2019-01-16T01:26:43.622Z,8.08
2019-01-16T01:27:43.692Z,8.11
2019-01-16T01:28:58.368Z,8.08
2019-01-16T01:29:58.334Z,8.05
2019-01-16T01:30:43.690Z,8.07
2019-01-16T01:31:43.704Z,8.1
2019-01-16T01:32:58.381Z,8.05
2019-01-16T01:33:43.745Z,8.11
2019-01-16T01:34:43.802Z,8.07
2019-01-16T01:35:43.768Z,8.11
2019-01-16T01:36:43.787Z,8.11
2019-01-16T01:37:43.798Z,8.12
2019-01-16T01:38:43.814Z,8.07
2019-01-16T01:40:43.850Z,8.11
2019-01-16T01:41:43.863Z,8.04
2019-01-16T01:42:43.927Z,8.07
2019-01-16T01:43:43.893Z,8.05
2019-01-16T01:45:43.734Z,8.07
2019-01-16T01:47:43.958Z,8.12
2019-01-16T01:48:58.641Z,8.1
2019-01-16T01:49:44.097Z,8.05
2019-01-16T01:50:44.008Z,8.11
2019-01-16T01:51:44.023Z,8.15
2019-01-16T01:52:44.050Z,8.07
2019-01-16T01:53:44.056Z,8.07
2019-01-16T01:54:44.074Z,8.12
2019-01-16T01:55:44.087Z,8.1
2019-01-16T01:56:44.160Z,8.1
2019-01-16T01:57:44.121Z,8.15
2019-01-16T01:59:58.817Z,8.23
2019-01-16T02:00:44.168Z,8.18
2019-01-16T02:01:44.284Z,8.22
2019-01-16T02:02:44.201Z,8.19
2019-01-16T02:03:44.219Z,8.22
2019-01-16T02:04:58.896Z,8.19
2019-01-16T02:05:44.248Z,8.26
2019-01-16T02:06:44.263Z,8.26
2019-01-16T02:07:44.293Z,8.26
2019-01-16T02:08:44.400Z,8.26
2019-01-16T02:09:44.316Z,8.23
2019-01-16T02:11:44.405Z,8.22
2019-01-16T02:12:44.361Z,8.23
2019-01-16T02:14:44.394Z,8.23
2019-01-16T02:15:44.519Z,8.33
2019-01-16T02:16:59.137Z,8.34
2019-01-16T02:17:44.444Z,8.36
2019-01-16T02:18:52.037Z,8.33
2019-01-16T02:19:44.472Z,8.33
2019-01-16T02:20:59.153Z,8.26
2019-01-16T02:21:44.507Z,8.23
2019-01-16T02:22:44.523Z,8.4
2019-01-16T02:23:44.540Z,8.29
2019-01-16T02:24:44.607Z,8.34
2019-01-16T02:25:44.571Z,8.36
2019-01-16T02:26:44.586Z,8.33
2019-01-16T02:27:44.658Z,8.3
2019-01-16T02:28:44.677Z,8.34
2019-01-16T02:30:44.654Z,8.3
2019-01-16T02:31:44.668Z,8.29
2019-01-16T02:32:44.686Z,8.26
2019-01-16T02:33:44.704Z,8.28
2019-01-16T02:34:44.768Z,8.26
2019-01-16T02:35:59.403Z,8.26
2019-01-16T02:36:44.750Z,8.33
2019-01-16T02:37:44.768Z,8.26
2019-01-16T02:38:44.797Z,8.29
2019-01-16T02:39:44.801Z,8.23
2019-01-16T02:40:44.816Z,8.22
2019-01-16T02:42:59.516Z,8.26
2019-01-16T02:43:44.870Z,8.26
2019-01-16T02:44:44.879Z,8.23
2019-01-16T02:45:44.903Z,8.23
2019-01-16T02:46:44.964Z,8.19
2019-01-16T02:47:44.934Z,8.22
2019-01-16T02:48:44.953Z,8.22
2019-01-16T02:49:44.959Z,8.18
2019-01-16T02:50:44.977Z,8.26
2019-01-16T02:51:44.996Z,8.2
2019-01-16T02:52:45.013Z,8.22
2019-01-16T02:53:45.027Z,8.25
2019-01-16T02:54:45.044Z,8.18
2019-01-16T02:55:45.059Z,8.25
2019-01-16T02:56:45.078Z,8.23
2019-01-16T02:57:45.094Z,8.19
2019-01-16T02:58:45.109Z,8.25
2019-01-16T02:59:45.126Z,8.22
2019-01-16T03:00:45.291Z,8.2
2019-01-16T03:01:45.164Z,8.19
2019-01-16T03:02:45.174Z,8.23
2019-01-16T03:03:45.193Z,8.22
2019-01-16T03:04:45.206Z,8.19
2019-01-16T03:05:45.240Z,8.23
2019-01-16T03:06:45.236Z,8.2
2019-01-16T03:07:59.920Z,8.16
2019-01-16T03:08:45.278Z,8.16
2019-01-16T03:09:45.041Z,8.19
2019-01-16T03:10:45.308Z,8.2
2019-01-16T03:11:45.318Z,8.23
2019-01-16T03:12:45.337Z,8.19
2019-01-16T03:13:45.352Z,8.2
2019-01-16T03:14:45.419Z,8.12
2019-01-16T03:15:45.381Z,8.18
2019-01-16T03:16:45.416Z,8.12
2019-01-16T03:17:45.413Z,8.23
2019-01-16T03:18:45.438Z,8.23
2019-01-16T03:19:45.448Z,8.12
2019-01-16T03:20:45.471Z,8.23
2019-01-16T03:21:45.478Z,8.19
2019-01-16T03:22:45.501Z,8.16
2019-01-16T03:24:00.276Z,8.12
2019-01-16T03:24:45.532Z,8.16
2019-01-16T03:25:45.542Z,8.15
2019-01-16T03:26:45.561Z,8.08
2019-01-16T03:27:45.578Z,8.11
2019-01-16T03:29:45.608Z,8.15
2019-01-16T03:30:45.636Z,8.11
2019-01-16T03:32:00.361Z,8.11
2019-01-16T03:32:45.671Z,8.1
2019-01-16T03:34:45.701Z,7.98
2019-01-16T03:35:45.722Z,8
2019-01-16T03:36:45.721Z,8.01
2019-01-16T03:37:45.844Z,8
2019-01-16T03:38:45.759Z,8.02
2019-01-16T03:40:00.443Z,8.04
2019-01-16T03:40:45.789Z,7.98
2019-01-16T03:41:45.807Z,8.05
2019-01-16T03:42:45.819Z,7.95
2019-01-16T03:43:45.888Z,8.02
2019-01-16T03:46:45.885Z,7.89
2019-01-16T03:49:45.955Z,7.8
2019-01-16T03:50:45.960Z,7.9
2019-01-16T03:52:00.631Z,7.85
2019-01-16T03:52:46.034Z,7.93
2019-01-16T03:53:46.014Z,7.95
2019-01-16T03:54:46.029Z,7.87
2019-01-16T03:56:00.692Z,7.86
2019-01-16T03:56:46.049Z,7.85
2019-01-16T03:57:45.816Z,7.86
2019-01-16T03:58:46.079Z,7.85
2019-01-16T04:00:00.766Z,7.87
2019-01-16T04:00:45.965Z,7.9
2019-01-16T04:01:46.181Z,7.87
2019-01-16T04:02:46.153Z,7.83
2019-01-16T04:03:46.162Z,7.92
2019-01-16T04:05:46.194Z,7.87
2019-01-16T04:06:46.260Z,7.8
2019-01-16T04:07:46.227Z,7.89
2019-01-16T04:08:46.249Z,7.92
2019-01-16T04:09:46.255Z,7.8
2019-01-16T04:11:00.935Z,7.89
2019-01-16T04:11:46.337Z,7.83
2019-01-16T04:12:46.302Z,7.8
2019-01-16T04:13:46.332Z,7.85
2019-01-16T04:14:46.349Z,7.85
2019-01-16T04:15:46.351Z,7.8
2019-01-16T04:16:46.369Z,7.82
2019-01-16T04:19:46.419Z,7.85
2019-01-16T04:20:46.439Z,7.87
2019-01-16T04:21:46.454Z,7.85
2019-01-16T04:22:46.468Z,7.85
2019-01-16T04:23:46.483Z,7.85
2019-01-16T04:24:46.497Z,7.87
2019-01-16T04:25:46.515Z,7.87
2019-01-16T04:26:46.533Z,7.87
2019-01-16T04:27:46.553Z,7.85
2019-01-16T04:28:46.571Z,7.75
2019-01-16T04:29:46.583Z,7.87
2019-01-16T04:30:46.646Z,7.85
2019-01-16T04:31:46.610Z,7.85
2019-01-16T04:32:46.628Z,7.89
2019-01-16T04:33:46.641Z,7.83
2019-01-16T04:34:46.660Z,7.82
2019-01-16T04:37:01.420Z,7.85
2019-01-16T04:38:01.373Z,7.85
2019-01-16T04:38:46.723Z,7.86
2019-01-16T04:39:46.743Z,7.86
2019-01-16T04:40:46.754Z,7.87
2019-01-16T04:42:01.432Z,7.79
2019-01-16T04:43:01.450Z,7.75
2019-01-16T04:43:46.858Z,7.86
2019-01-16T04:45:46.837Z,7.85
2019-01-16T04:46:46.851Z,7.85
2019-01-16T04:47:46.876Z,7.71
2019-01-16T04:48:46.888Z,7.83
2019-01-16T04:49:46.903Z,7.82
2019-01-16T04:50:46.922Z,7.85
2019-01-16T04:51:46.933Z,7.83
2019-01-16T04:53:46.973Z,7.83
2019-01-16T04:54:46.985Z,7.82
2019-01-16T04:55:47.045Z,7.82
2019-01-16T04:56:47.011Z,7.79
2019-01-16T04:57:47.035Z,7.87
2019-01-16T04:59:01.708Z,7.89
2019-01-16T04:59:46.866Z,7.82
2019-01-16T05:00:47.076Z,7.75
2019-01-16T05:01:47.093Z,7.83
2019-01-16T05:02:47.116Z,7.8
2019-01-16T05:03:47.124Z,7.8
2019-01-16T05:04:47.146Z,7.85
2019-01-16T05:05:47.154Z,7.82
2019-01-16T05:06:47.222Z,7.75
2019-01-16T05:07:47.292Z,7.67
2019-01-16T05:08:47.206Z,7.77
2019-01-16T05:09:47.229Z,7.85
2019-01-16T05:10:47.237Z,7.69
2019-01-16T05:12:01.916Z,7.75
2019-01-16T05:12:47.304Z,7.74
2019-01-16T05:13:47.343Z,7.71
2019-01-16T05:15:01.967Z,7.68
2019-01-16T05:15:47.314Z,7.71
2019-01-16T05:16:47.105Z,7.69
2019-01-16T05:17:47.368Z,7.64
2019-01-16T05:18:47.364Z,7.8
2019-01-16T05:19:47.402Z,7.68
2019-01-16T05:20:47.400Z,7.68
2019-01-16T05:21:47.415Z,7.75
2019-01-16T05:22:47.428Z,7.67
2019-01-16T05:23:47.446Z,7.69
2019-01-16T05:25:47.491Z,7.72
2019-01-16T05:26:47.495Z,7.69
2019-01-16T05:27:47.510Z,7.63
2019-01-16T05:28:47.533Z,7.79
2019-01-16T05:29:47.543Z,7.68
2019-01-16T05:31:02.221Z,7.64
2019-01-16T05:31:47.579Z,7.67
2019-01-16T05:32:47.591Z,7.79
2019-01-16T05:33:47.613Z,7.69
2019-01-16T05:34:47.624Z,7.71
2019-01-16T05:36:47.656Z,7.6
2019-01-16T05:37:47.685Z,7.79
2019-01-16T05:38:47.702Z,7.8
2019-01-16T05:39:47.703Z,7.67
2019-01-16T05:40:47.720Z,7.79
2019-01-16T05:41:47.739Z,7.68
2019-01-16T05:43:02.416Z,7.68
2019-01-16T05:44:02.442Z,7.67
2019-01-16T05:44:47.783Z,7.69
2019-01-16T05:46:02.464Z,7.63
2019-01-16T05:46:47.816Z,7.71
2019-01-16T05:47:47.831Z,7.69
2019-01-16T05:48:47.860Z,7.68
2019-01-16T05:50:06.457Z,7.63
2019-01-16T05:50:47.882Z,7.68
2019-01-16T05:51:47.955Z,7.71
2019-01-16T05:52:47.926Z,7.69
2019-01-16T05:53:47.928Z,7.69
2019-01-16T05:54:47.946Z,7.71
2019-01-16T05:56:02.627Z,7.74
2019-01-16T05:57:48.000Z,7.69
2019-01-16T05:58:48.008Z,7.72
2019-01-16T05:59:48.032Z,7.75
2019-01-16T06:00:48.129Z,7.72
2019-01-16T06:01:48.057Z,7.69
2019-01-16T06:02:48.174Z,7.71
2019-01-16T06:03:48.089Z,7.67
2019-01-16T06:05:48.120Z,7.72
2019-01-16T06:06:48.135Z,7.69
2019-01-16T06:07:48.161Z,7.69
2019-01-16T06:08:48.175Z,7.71
2019-01-16T06:09:48.190Z,7.69
2019-01-16T06:10:48.216Z,7.61
2019-01-16T06:11:48.270Z,7.68
2019-01-16T06:12:48.232Z,7.71
2019-01-16T06:13:48.248Z,7.69
2019-01-16T06:14:48.275Z,7.64
2019-01-16T06:15:48.282Z,7.61
2019-01-16T06:16:48.295Z,7.64
2019-01-16T06:18:02.975Z,7.69
2019-01-16T06:18:48.435Z,7.69
2019-01-16T06:19:53.975Z,7.63
2019-01-16T06:20:48.366Z,7.64
2019-01-16T06:21:48.379Z,7.61
2019-01-16T06:22:48.396Z,7.57
2019-01-16T06:23:48.417Z,7.61
2019-01-16T06:24:48.482Z,7.61
2019-01-16T06:25:48.462Z,7.6
2019-01-16T06:26:48.467Z,7.64
2019-01-16T06:27:48.493Z,7.61
2019-01-16T06:30:03.171Z,7.61
2019-01-16T06:30:48.524Z,7.58
2019-01-16T06:31:48.548Z,7.61
2019-01-16T06:32:49.275Z,7.6
2019-01-16T06:34:03.235Z,7.58
2019-01-16T06:34:48.592Z,7.75
2019-01-16T06:35:48.604Z,7.75
2019-01-16T06:36:48.625Z,7.6
2019-01-16T06:37:48.645Z,7.64
2019-01-16T06:38:48.672Z,7.58
2019-01-16T06:39:48.418Z,7.57
2019-01-16T06:41:48.745Z,7.79
2019-01-16T06:42:48.468Z,7.55
2019-01-16T06:43:48.731Z,7.55
2019-01-16T06:44:48.747Z,7.55
2019-01-16T06:45:48.767Z,7.63
2019-01-16T06:46:48.780Z,7.64
2019-01-16T06:47:48.588Z,7.67
2019-01-16T06:48:48.810Z,7.67
2019-01-16T06:50:04.382Z,7.57
2019-01-16T06:50:48.845Z,7.64
2019-01-16T06:51:48.865Z,7.6
2019-01-16T06:52:48.873Z,7.53
2019-01-16T06:53:48.892Z,7.63
2019-01-16T06:54:48.906Z,7.6
2019-01-16T06:55:48.924Z,7.67
2019-01-16T06:56:48.937Z,7.63
2019-01-16T06:57:48.958Z,7.63
2019-01-16T06:58:48.975Z,7.53
2019-01-16T06:59:48.989Z,7.55
2019-01-16T07:00:49.013Z,7.61
2019-01-16T07:02:03.683Z,7.58
2019-01-16T07:02:49.040Z,7.57
2019-01-16T07:03:49.053Z,7.5
2019-01-16T07:06:03.746Z,7.5
2019-01-16T07:06:49.100Z,7.52
2019-01-16T07:07:49.117Z,7.5
2019-01-16T07:08:49.132Z,7.5
2019-01-16T07:09:49.148Z,7.55
2019-01-16T07:10:49.213Z,7.52
2019-01-16T07:11:49.232Z,7.46
2019-01-16T07:14:49.230Z,7.52
2019-01-16T07:15:49.252Z,7.5
2019-01-16T07:16:49.309Z,7.52
2019-01-16T07:17:49.276Z,7.49
2019-01-16T07:18:49.326Z,7.48
2019-01-16T07:19:49.308Z,7.48
2019-01-16T07:21:03.996Z,7.5
2019-01-16T07:21:49.445Z,7.55
2019-01-16T07:22:49.357Z,7.52
2019-01-16T07:23:49.375Z,7.5
2019-01-16T07:24:49.389Z,7.43
2019-01-16T07:25:49.404Z,7.55
2019-01-16T07:26:49.485Z,7.48
2019-01-16T07:27:49.494Z,7.43
2019-01-16T07:28:49.456Z,7.52
2019-01-16T07:29:49.471Z,7.48
2019-01-16T07:30:49.487Z,7.46
2019-01-16T07:31:49.509Z,7.46
2019-01-16T07:33:04.181Z,7.53
2019-01-16T07:33:49.594Z,7.49
2019-01-16T07:34:49.603Z,7.49
2019-01-16T07:35:49.567Z,7.52
2019-01-16T07:36:49.581Z,7.5
2019-01-16T07:37:49.599Z,7.57
2019-01-16T07:38:49.668Z,7.49
2019-01-16T07:39:49.681Z,7.5
2019-01-16T07:40:49.645Z,7.48
2019-01-16T07:41:49.660Z,7.53
2019-01-16T07:42:52.021Z,7.46
2019-01-16T07:43:49.695Z,7.48
2019-01-16T07:44:49.713Z,7.53
2019-01-16T07:45:49.726Z,7.45
2019-01-16T07:46:50.907Z,7.55
2019-01-16T07:48:49.785Z,7.53
2019-01-16T07:49:49.794Z,7.48
2019-01-16T07:50:49.808Z,7.61
2019-01-16T07:51:49.826Z,7.52
2019-01-16T07:53:04.510Z,7.49
2019-01-16T07:53:49.853Z,7.52
2019-01-16T07:54:49.872Z,7.49
2019-01-16T07:55:49.899Z,7.53
2019-01-16T07:56:49.904Z,7.48
2019-01-16T07:57:49.684Z,7.52
2019-01-16T08:00:50.019Z,7.52
2019-01-16T08:02:50.000Z,7.48
2019-01-16T08:03:50.013Z,7.53
2019-01-16T08:05:04.694Z,7.5
2019-01-16T08:05:50.052Z,7.53
2019-01-16T08:07:04.819Z,7.5
2019-01-16T08:07:50.079Z,7.58
2019-01-16T08:09:04.808Z,7.6
2019-01-16T08:09:50.209Z,7.55
2019-01-16T08:10:50.137Z,7.61
2019-01-16T08:11:50.145Z,7.58
2019-01-16T08:12:50.183Z,7.57
2019-01-16T08:13:50.174Z,7.63
2019-01-16T08:14:50.189Z,7.61
2019-01-16T08:15:50.205Z,7.68
2019-01-16T08:16:50.225Z,7.58
2019-01-16T08:17:50.239Z,7.6
2019-01-16T08:18:50.256Z,7.61
2019-01-16T08:19:50.339Z,7.52
2019-01-16T08:20:50.286Z,7.49
2019-01-16T08:21:50.309Z,7.5
2019-01-16T08:23:04.982Z,7.49
2019-01-16T08:23:50.336Z,7.64
2019-01-16T08:25:05.016Z,7.6
2019-01-16T08:25:50.364Z,7.71
2019-01-16T08:26:50.392Z,7.6
2019-01-16T08:27:50.402Z,7.6
2019-01-16T08:28:50.414Z,7.69
2019-01-16T08:30:50.449Z,7.57
2019-01-16T08:32:50.483Z,7.53
2019-01-16T08:33:50.502Z,7.6
2019-01-16T08:34:50.512Z,7.69
2019-01-16T08:35:50.627Z,7.52
2019-01-16T08:36:50.593Z,7.64
2019-01-16T08:37:50.561Z,7.58
2019-01-16T08:38:50.576Z,7.6
2019-01-16T08:39:50.596Z,7.55
2019-01-16T08:41:05.275Z,7.58
2019-01-16T08:41:50.738Z,7.61
2019-01-16T08:42:50.647Z,7.68
2019-01-16T08:43:50.661Z,7.63
2019-01-16T08:44:50.678Z,7.74
2019-01-16T08:45:50.691Z,7.57
2019-01-16T08:46:50.713Z,7.63
2019-01-16T08:47:50.736Z,7.68
2019-01-16T08:49:50.774Z,7.64
2019-01-16T08:50:50.772Z,7.67
2019-01-16T08:51:50.799Z,7.67
2019-01-16T08:52:50.813Z,7.67
2019-01-16T08:53:50.827Z,7.77
2019-01-16T08:54:50.846Z,7.85
2019-01-16T08:56:05.518Z,7.75
2019-01-16T08:56:50.867Z,7.82
2019-01-16T08:57:50.884Z,7.79
2019-01-16T08:58:51.613Z,7.85
2019-01-16T08:59:50.969Z,7.86
2019-01-16T09:00:50.943Z,7.87
2019-01-16T09:01:50.950Z,7.83
2019-01-16T09:02:50.968Z,7.89
2019-01-16T09:03:50.985Z,7.87
2019-01-16T09:04:51.062Z,7.8
2019-01-16T09:05:51.023Z,7.83
2019-01-16T09:06:51.040Z,7.85
2019-01-16T09:07:51.057Z,7.77
2019-01-16T09:08:51.068Z,7.83
2019-01-16T09:09:51.081Z,7.75
2019-01-16T09:10:51.098Z,7.85
2019-01-16T09:11:51.167Z,7.83
2019-01-16T09:12:51.129Z,7.83
2019-01-16T09:13:51.144Z,7.83
2019-01-16T09:14:51.212Z,7.89
2019-01-16T09:15:51.227Z,7.87
2019-01-16T09:16:51.194Z,7.93
2019-01-16T09:17:51.212Z,7.89
2019-01-16T09:18:51.231Z,7.85
2019-01-16T09:19:51.241Z,7.87
2019-01-16T09:21:05.927Z,7.89
2019-01-16T09:22:51.296Z,7.85
2019-01-16T09:23:51.308Z,7.87
2019-01-16T09:25:05.987Z,7.74
2019-01-16T09:25:51.343Z,7.89
2019-01-16T09:26:51.358Z,7.71
2019-01-16T09:28:06.039Z,7.85
2019-01-16T09:28:51.390Z,7.77
2019-01-16T09:29:51.406Z,7.89
2019-01-16T09:30:51.437Z,7.87
2019-01-16T09:31:51.444Z,7.9
2019-01-16T09:32:51.460Z,7.86
2019-01-16T09:34:51.499Z,7.86
2019-01-16T09:35:51.606Z,7.85
2019-01-16T09:36:51.523Z,7.85
2019-01-16T09:37:51.547Z,7.83
2019-01-16T09:39:06.221Z,7.77
2019-01-16T09:39:51.571Z,7.83
2019-01-16T09:40:51.590Z,7.93
2019-01-16T09:42:06.264Z,7.89
2019-01-16T09:42:51.620Z,7.8
2019-01-16T09:44:06.306Z,7.82
2019-01-16T09:44:51.650Z,7.92
2019-01-16T09:45:51.675Z,7.85
2019-01-16T09:46:51.698Z,7.85
2019-01-16T09:47:51.754Z,7.87
2019-01-16T09:48:51.715Z,7.8
2019-01-16T09:49:51.732Z,7.8
2019-01-16T09:50:52.916Z,7.77
2019-01-16T09:51:51.769Z,7.72
2019-01-16T09:52:51.835Z,7.8
2019-01-16T09:53:53.350Z,7.89
2019-01-16T09:55:06.479Z,7.89
2019-01-16T09:56:06.494Z,7.79
2019-01-16T09:56:51.850Z,7.79
2019-01-16T09:57:51.863Z,7.85
2019-01-16T09:58:51.882Z,7.9
2019-01-16T10:00:06.560Z,7.87
2019-01-16T10:00:51.911Z,7.85
2019-01-16T10:01:51.931Z,7.77
2019-01-16T10:02:51.945Z,7.68
2019-01-16T10:03:51.964Z,7.61
2019-01-16T10:04:52.027Z,7.61
2019-01-16T10:05:52.045Z,7.58
2019-01-16T10:06:52.021Z,7.69
2019-01-16T10:07:52.030Z,7.72
2019-01-16T10:08:52.041Z,7.64
2019-01-16T10:10:06.725Z,7.68
2019-01-16T10:10:52.133Z,7.69
2019-01-16T10:11:52.092Z,7.69
2019-01-16T10:12:52.107Z,7.6
2019-01-16T10:13:52.124Z,7.63
2019-01-16T10:14:52.142Z,7.68
2019-01-16T10:16:06.825Z,7.61
2019-01-16T10:16:52.173Z,7.61
2019-01-16T10:17:52.197Z,7.6
2019-01-16T10:18:52.208Z,7.6
2019-01-16T10:19:52.222Z,7.71
2019-01-16T10:20:58.127Z,7.6
2019-01-16T10:21:52.256Z,7.64
2019-01-16T10:22:52.270Z,7.67
2019-01-16T10:23:53.532Z,7.5
2019-01-16T10:24:52.315Z,7.55
2019-01-16T10:25:52.322Z,7.55
2019-01-16T10:26:52.338Z,7.55
2019-01-16T10:27:52.356Z,7.58
2019-01-16T10:28:52.369Z,7.58
2019-01-16T10:29:52.392Z,7.6
2019-01-16T10:31:07.065Z,7.58
2019-01-16T10:31:52.419Z,7.6
2019-01-16T10:32:52.441Z,7.58
2019-01-16T10:33:52.503Z,7.6
2019-01-16T10:34:52.565Z,7.6
2019-01-16T10:35:52.483Z,7.61
2019-01-16T10:36:52.500Z,7.61
2019-01-16T10:37:52.524Z,7.6
2019-01-16T10:38:52.537Z,7.57
2019-01-16T10:39:52.648Z,7.58
2019-01-16T10:41:07.231Z,7.61
2019-01-16T10:41:52.678Z,7.6
2019-01-16T10:42:52.599Z,7.53
2019-01-16T10:43:52.365Z,7.6
2019-01-16T10:44:52.634Z,7.67
2019-01-16T10:45:52.651Z,7.63
2019-01-16T10:46:52.663Z,7.68
2019-01-16T10:47:52.681Z,7.61
2019-01-16T10:48:54.745Z,7.55
2019-01-16T10:49:52.719Z,7.6
2019-01-16T10:50:52.740Z,7.69
2019-01-16T10:52:52.760Z,7.6
2019-01-16T10:55:52.863Z,7.68
2019-01-16T10:56:52.828Z,7.61
2019-01-16T10:57:52.842Z,7.67
2019-01-16T10:58:52.858Z,7.6
2019-01-16T11:00:07.538Z,7.67
2019-01-16T11:00:52.888Z,7.67
2019-01-16T11:01:52.905Z,7.69
2019-01-16T11:03:07.636Z,7.74
2019-01-16T11:04:52.960Z,7.75
2019-01-16T11:05:52.970Z,7.82
2019-01-16T11:07:53.007Z,7.77
2019-01-16T11:08:53.069Z,7.77
2019-01-16T11:09:53.090Z,7.8
2019-01-16T11:10:53.051Z,7.79
2019-01-16T11:11:53.074Z,7.77
2019-01-16T11:12:53.104Z,7.77
2019-01-16T11:13:53.103Z,7.74
2019-01-16T11:14:53.166Z,7.75
2019-01-16T11:16:07.797Z,7.77
2019-01-16T11:16:58.870Z,7.77
2019-01-16T11:17:53.166Z,7.8
2019-01-16T11:19:07.848Z,7.87
2019-01-16T11:19:53.201Z,7.87
2019-01-16T11:20:53.216Z,7.8
2019-01-16T11:21:53.231Z,7.87
2019-01-16T11:22:53.248Z,7.79
2019-01-16T11:23:53.264Z,7.85
2019-01-16T11:24:53.280Z,7.89
2019-01-16T11:25:53.299Z,7.85
2019-01-16T11:26:53.321Z,7.87
2019-01-16T11:27:53.081Z,7.87
2019-01-16T11:28:53.348Z,7.98
2019-01-16T11:29:53.415Z,8.01
2019-01-16T11:30:53.431Z,8.01
2019-01-16T11:32:08.061Z,8
2019-01-16T11:32:53.473Z,8.01
2019-01-16T11:33:53.427Z,8.05
2019-01-16T11:35:08.110Z,8.07
2019-01-16T11:35:53.466Z,8.05
2019-01-16T11:36:53.487Z,8.08
2019-01-16T11:37:53.494Z,8.26
2019-01-16T11:38:53.512Z,8.23
2019-01-16T11:39:53.523Z,8.22
2019-01-16T11:40:53.547Z,8.25
2019-01-16T11:41:53.560Z,8.25
2019-01-16T11:42:53.579Z,8.22
2019-01-16T11:43:53.591Z,8.25
2019-01-16T11:44:53.610Z,8.2
2019-01-16T11:46:08.291Z,8.23
2019-01-16T11:46:53.641Z,8.19
2019-01-16T11:47:53.658Z,8.25
2019-01-16T11:49:08.359Z,8.25
2019-01-16T11:49:53.700Z,8.29
2019-01-16T11:51:08.372Z,8.2
2019-01-16T11:51:53.730Z,8.33
2019-01-16T11:52:53.749Z,8.33
2019-01-16T11:53:53.756Z,8.36
2019-01-16T11:54:53.776Z,8.44
2019-01-16T11:55:53.795Z,8.41
2019-01-16T11:56:53.810Z,8.47
2019-01-16T11:57:53.826Z,8.44
2019-01-16T11:59:53.856Z,8.44
2019-01-16T12:00:53.876Z,8.38
2019-01-16T12:02:53.907Z,8.4
2019-01-16T12:03:53.928Z,8.43
2019-01-16T12:04:54.000Z,8.37
2019-01-16T12:06:08.623Z,8.36
2019-01-16T12:06:53.977Z,8.41
2019-01-16T12:07:53.991Z,8.37
2019-01-16T12:08:54.056Z,8.4
2019-01-16T12:10:54.045Z,8.36
2019-01-16T12:11:54.059Z,8.45
2019-01-16T12:13:54.091Z,8.45
2019-01-16T12:15:08.775Z,8.5
2019-01-16T12:15:54.145Z,8.44
2019-01-16T12:16:54.146Z,8.56
2019-01-16T12:17:54.158Z,8.44
2019-01-16T12:18:54.174Z,8.43
2019-01-16T12:19:54.193Z,8.43
2019-01-16T12:20:54.207Z,8.4
2019-01-16T12:21:54.227Z,8.41
2019-01-16T12:22:54.241Z,8.36
2019-01-16T12:23:54.315Z,8.43
2019-01-16T12:24:54.275Z,8.45
2019-01-16T12:25:54.403Z,8.29
2019-01-16T12:26:54.312Z,8.4
2019-01-16T12:27:54.375Z,8.41
2019-01-16T12:28:54.341Z,8.43
2019-01-16T12:29:54.356Z,8.38
2019-01-16T12:30:54.377Z,8.48
2019-01-16T12:31:55.492Z,8.43
2019-01-16T12:32:54.407Z,8.43
2019-01-16T12:34:09.090Z,8.45
2019-01-16T12:34:54.450Z,8.38
2019-01-16T12:35:54.459Z,8.44
2019-01-16T12:36:54.480Z,8.44
2019-01-16T12:38:09.158Z,8.33
2019-01-16T12:38:54.507Z,8.3
2019-01-16T12:39:54.525Z,8.34
2019-01-16T12:40:54.540Z,8.34
2019-01-16T12:42:01.847Z,8.36
2019-01-16T12:42:54.574Z,8.3
2019-01-16T12:43:54.604Z,8.3
2019-01-16T12:44:54.607Z,8.33
2019-01-16T12:45:54.631Z,8.34
2019-01-16T12:46:54.643Z,8.37
2019-01-16T12:48:54.673Z,8.4
2019-01-16T12:50:09.397Z,8.3
2019-01-16T12:50:54.714Z,8.4
2019-01-16T12:51:54.775Z,8.33
2019-01-16T12:52:59.041Z,8.3
2019-01-16T12:54:09.422Z,8.28
2019-01-16T12:54:54.777Z,8.37
2019-01-16T12:55:54.791Z,8.3
2019-01-16T12:56:54.813Z,8.25
2019-01-16T12:57:54.825Z,8.25
2019-01-16T12:58:54.841Z,8.34
2019-01-16T12:59:54.855Z,8.36
2019-01-16T13:00:54.924Z,8.34
2019-01-16T13:01:54.892Z,8.23
2019-01-16T13:04:54.942Z,8.23
2019-01-16T13:05:54.957Z,8.26
2019-01-16T13:06:54.982Z,8.26
2019-01-16T13:07:55.039Z,8.26
2019-01-16T13:08:55.008Z,8.2
2019-01-16T13:10:09.685Z,8.22
2019-01-16T13:10:55.043Z,8.34
2019-01-16T13:11:55.058Z,8.2
2019-01-16T13:12:55.073Z,8.23
2019-01-16T13:13:55.088Z,8.25
2019-01-16T13:15:55.123Z,8.33
2019-01-16T13:16:55.141Z,8.3
2019-01-16T13:17:55.152Z,8.26
2019-01-16T13:18:55.179Z,8.2
2019-01-16T13:20:55.205Z,8.28
2019-01-16T13:21:55.225Z,8.37
2019-01-16T13:22:55.252Z,8.36
2019-01-16T13:23:55.255Z,8.37
2019-01-16T13:24:55.320Z,8.26
2019-01-16T13:26:09.954Z,8.25
2019-01-16T13:26:55.320Z,8.25
2019-01-16T13:27:55.321Z,8.25
2019-01-16T13:28:55.337Z,8.23
2019-01-16T13:29:55.353Z,8.2
2019-01-16T13:31:55.386Z,8.26
2019-01-16T13:32:55.402Z,8.34
2019-01-16T13:33:55.422Z,8.29
2019-01-16T13:36:55.485Z,8.22
2019-01-16T13:37:55.483Z,8.33
2019-01-16T13:38:55.501Z,8.33
2019-01-16T13:39:55.519Z,8.22
2019-01-16T13:41:10.206Z,8.26
2019-01-16T13:41:55.553Z,8.19
2019-01-16T13:42:55.567Z,8.36
2019-01-16T13:43:55.590Z,8.28
2019-01-16T13:44:55.600Z,8.36
2019-01-16T13:45:55.617Z,8.38
2019-01-16T13:46:55.634Z,8.29
2019-01-16T13:47:55.657Z,8.28
2019-01-16T13:48:57.708Z,8.25
2019-01-16T13:49:55.787Z,8.2
2019-01-16T13:50:55.453Z,8.25
2019-01-16T13:51:55.717Z,8.25
2019-01-16T13:52:55.791Z,8.22
2019-01-16T13:53:55.853Z,8.22
2019-01-16T13:54:55.767Z,8.2
2019-01-16T13:55:55.785Z,8.23
2019-01-16T13:56:55.801Z,8.19
2019-01-16T13:57:55.816Z,8.18
2019-01-16T13:58:55.834Z,8.1
2019-01-16T13:59:55.852Z,8.12
2019-01-16T14:01:55.883Z,8.12
2019-01-16T14:02:55.907Z,8.18
2019-01-16T14:03:55.920Z,8.23
2019-01-16T14:04:55.938Z,8.19
2019-01-16T14:05:55.948Z,8.2
2019-01-16T14:07:55.988Z,8.12
2019-01-16T14:08:56.000Z,8.16
2019-01-16T14:09:56.028Z,8.12
2019-01-16T14:10:56.033Z,8.07
2019-01-16T14:11:56.053Z,8.23
2019-01-16T14:13:10.730Z,8.26
2019-01-16T14:14:00.575Z,8.19
2019-01-16T14:14:56.097Z,8.22
2019-01-16T14:15:56.116Z,8.29
2019-01-16T14:16:56.133Z,8.2
2019-01-16T14:17:56.145Z,8.1
2019-01-16T14:18:56.161Z,8.2
2019-01-16T14:19:56.237Z,8.16
2019-01-16T14:20:56.194Z,8.08
2019-01-16T14:22:12.498Z,8.07
2019-01-16T14:23:56.247Z,8.1
2019-01-16T14:24:56.314Z,8.01